sensor_id;sensor_type;location;lat;lon;timestamp;P1;durP1;ratioP1;P2;durP2;ratioP2
53646;SDS011;39550;52.230;5.194;2023-08-20T00:01:29;5.82;;;3.22;;
53646;SDS011;39550;52.230;5.194;2023-08-20T00:03:55;6.45;;;3.20;;
53646;SDS011;39550;52.230;5.194;2023-08-20T00:06:21;5.30;;;2.90;;
53646;SDS011;39550;52.230;5.194;2023-08-20T00:08:47;6.57;;;3.10;;
53646;SDS011;39550;52.230;5.194;2023-08-20T00:11:13;4.35;;;2.78;;
53646;SDS011;39550;52.230;5.194;2023-08-20T00:13:39;5.03;;;3.17;;
53646;SDS011;39550;52.230;5.194;2023-08-20T00:16:05;6.63;;;3.25;;
53646;SDS011;39550;52.230;5.194;2023-08-20T00:18:31;5.88;;;3.10;;
53646;SDS011;39550;52.230;5.194;2023-08-20T00:20:57;5.05;;;3.00;;
53646;SDS011;39550;52.230;5.194;2023-08-20T00:23:23;5.32;;;2.92;;
53646;SDS011;39550;52.230;5.194;2023-08-20T00:25:49;6.50;;;2.90;;
53646;SDS011;39550;52.230;5.194;2023-08-20T00:28:15;6.93;;;3.05;;
53646;SDS011;39550;52.230;5.194;2023-08-20T00:30:40;5.50;;;3.08;;
53646;SDS011;39550;52.230;5.194;2023-08-20T00:33:05;5.07;;;2.78;;
53646;SDS011;39550;52.230;5.194;2023-08-20T00:35:31;5.85;;;2.90;;
53646;SDS011;39550;52.230;5.194;2023-08-20T00:37:58;5.75;;;2.78;;
53646;SDS011;39550;52.230;5.194;2023-08-20T00:40:23;5.15;;;2.75;;
53646;SDS011;39550;52.230;5.194;2023-08-20T00:42:49;5.20;;;3.00;;
53646;SDS011;39550;52.230;5.194;2023-08-20T00:45:14;4.57;;;2.72;;
53646;SDS011;39550;52.230;5.194;2023-08-20T00:47:41;5.95;;;3.00;;
53646;SDS011;39550;52.230;5.194;2023-08-20T00:50:07;5.05;;;2.70;;
53646;SDS011;39550;52.230;5.194;2023-08-20T00:52:33;4.93;;;2.75;;
53646;SDS011;39550;52.230;5.194;2023-08-20T00:54:59;4.80;;;2.90;;
53646;SDS011;39550;52.230;5.194;2023-08-20T00:57:30;5.30;;;2.75;;
53646;SDS011;39550;52.230;5.194;2023-08-20T00:59:55;5.43;;;2.75;;
53646;SDS011;39550;52.230;5.194;2023-08-20T01:02:22;5.63;;;2.92;;
53646;SDS011;39550;52.230;5.194;2023-08-20T01:04:47;5.35;;;2.53;;
53646;SDS011;39550;52.230;5.194;2023-08-20T01:10:27;5.22;;;3.10;;
53646;SDS011;39550;52.230;5.194;2023-08-20T01:13:00;5.15;;;2.97;;
53646;SDS011;39550;52.230;5.194;2023-08-20T01:15:25;5.00;;;2.90;;
53646;SDS011;39550;52.230;5.194;2023-08-20T01:17:51;5.60;;;3.10;;
53646;SDS011;39550;52.230;5.194;2023-08-20T01:20:17;6.82;;;3.53;;
53646;SDS011;39550;52.230;5.194;2023-08-20T01:30:41;5.47;;;3.08;;
53646;SDS011;39550;52.230;5.194;2023-08-20T01:33:08;5.55;;;3.10;;
53646;SDS011;39550;52.230;5.194;2023-08-20T01:35:36;4.95;;;2.55;;
53646;SDS011;39550;52.230;5.194;2023-08-20T01:38:01;6.72;;;2.72;;
53646;SDS011;39550;52.230;5.194;2023-08-20T01:40:27;5.55;;;3.28;;
53646;SDS011;39550;52.230;5.194;2023-08-20T01:42:53;6.15;;;2.95;;
53646;SDS011;39550;52.230;5.194;2023-08-20T01:45:18;7.07;;;3.20;;
53646;SDS011;39550;52.230;5.194;2023-08-20T01:47:44;6.20;;;3.03;;
53646;SDS011;39550;52.230;5.194;2023-08-20T01:50:09;6.25;;;3.03;;
53646;SDS011;39550;52.230;5.194;2023-08-20T01:52:35;5.72;;;2.83;;
53646;SDS011;39550;52.230;5.194;2023-08-20T01:55:00;5.30;;;2.70;;
53646;SDS011;39550;52.230;5.194;2023-08-20T01:57:27;4.75;;;2.75;;
53646;SDS011;39550;52.230;5.194;2023-08-20T01:59:52;6.10;;;3.33;;
53646;SDS011;39550;52.230;5.194;2023-08-20T02:02:19;6.70;;;3.20;;
53646;SDS011;39550;52.230;5.194;2023-08-20T02:04:45;5.82;;;2.80;;
53646;SDS011;39550;52.230;5.194;2023-08-20T02:07:10;4.03;;;2.70;;
53646;SDS011;39550;52.230;5.194;2023-08-20T02:09:35;5.57;;;3.00;;
53646;SDS011;39550;52.230;5.194;2023-08-20T02:12:01;4.85;;;2.55;;
53646;SDS011;39550;52.230;5.194;2023-08-20T02:14:26;6.75;;;3.20;;
53646;SDS011;39550;52.230;5.194;2023-08-20T02:16:53;5.78;;;3.03;;
53646;SDS011;39550;52.230;5.194;2023-08-20T02:19:19;4.90;;;3.17;;
53646;SDS011;39550;52.230;5.194;2023-08-20T02:21:44;5.18;;;3.13;;
53646;SDS011;39550;52.230;5.194;2023-08-20T02:24:09;4.93;;;3.00;;
53646;SDS011;39550;52.230;5.194;2023-08-20T02:26:35;7.32;;;2.83;;
53646;SDS011;39550;52.230;5.194;2023-08-20T02:29:00;4.63;;;3.00;;
53646;SDS011;39550;52.230;5.194;2023-08-20T02:31:25;4.97;;;2.92;;
53646;SDS011;39550;52.230;5.194;2023-08-20T02:33:51;5.03;;;2.95;;
53646;SDS011;39550;52.230;5.194;2023-08-20T02:36:16;5.63;;;2.83;;
53646;SDS011;39550;52.230;5.194;2023-08-20T02:38:44;7.03;;;2.95;;
53646;SDS011;39550;52.230;5.194;2023-08-20T02:41:10;6.17;;;3.40;;
53646;SDS011;39550;52.230;5.194;2023-08-20T02:43:37;5.93;;;3.35;;
53646;SDS011;39550;52.230;5.194;2023-08-20T02:46:02;5.25;;;2.97;;
53646;SDS011;39550;52.230;5.194;2023-08-20T02:48:27;6.30;;;2.78;;
53646;SDS011;39550;52.230;5.194;2023-08-20T02:50:54;4.78;;;2.78;;
53646;SDS011;39550;52.230;5.194;2023-08-20T02:53:19;5.88;;;2.85;;
53646;SDS011;39550;52.230;5.194;2023-08-20T02:55:45;4.53;;;2.78;;
53646;SDS011;39550;52.230;5.194;2023-08-20T02:58:11;5.22;;;2.75;;
53646;SDS011;39550;52.230;5.194;2023-08-20T03:00:36;5.07;;;2.97;;
53646;SDS011;39550;52.230;5.194;2023-08-20T03:03:02;5.18;;;2.67;;
53646;SDS011;39550;52.230;5.194;2023-08-20T03:05:31;6.10;;;2.92;;
53646;SDS011;39550;52.230;5.194;2023-08-20T03:07:58;6.72;;;3.20;;
53646;SDS011;39550;52.230;5.194;2023-08-20T03:10:23;4.72;;;2.63;;
53646;SDS011;39550;52.230;5.194;2023-08-20T03:12:49;4.47;;;2.72;;
53646;SDS011;39550;52.230;5.194;2023-08-20T03:15:14;5.65;;;2.97;;
53646;SDS011;39550;52.230;5.194;2023-08-20T03:17:40;4.95;;;2.85;;
53646;SDS011;39550;52.230;5.194;2023-08-20T03:20:06;5.35;;;2.90;;
53646;SDS011;39550;52.230;5.194;2023-08-20T03:22:31;4.32;;;2.63;;
53646;SDS011;39550;52.230;5.194;2023-08-20T03:24:58;5.25;;;2.70;;
53646;SDS011;39550;52.230;5.194;2023-08-20T03:27:23;5.95;;;2.83;;
53646;SDS011;39550;52.230;5.194;2023-08-20T03:29:48;7.20;;;3.67;;
53646;SDS011;39550;52.230;5.194;2023-08-20T03:32:14;5.70;;;2.88;;
53646;SDS011;39550;52.230;5.194;2023-08-20T03:34:40;4.15;;;2.65;;
53646;SDS011;39550;52.230;5.194;2023-08-20T03:37:06;5.75;;;2.83;;
53646;SDS011;39550;52.230;5.194;2023-08-20T03:39:31;4.93;;;3.05;;
53646;SDS011;39550;52.230;5.194;2023-08-20T03:41:57;6.18;;;3.05;;
53646;SDS011;39550;52.230;5.194;2023-08-20T03:44:22;6.10;;;3.17;;
53646;SDS011;39550;52.230;5.194;2023-08-20T03:46:48;4.88;;;2.55;;
53646;SDS011;39550;52.230;5.194;2023-08-20T03:49:14;5.90;;;2.63;;
53646;SDS011;39550;52.230;5.194;2023-08-20T03:51:39;5.85;;;2.90;;
53646;SDS011;39550;52.230;5.194;2023-08-20T03:54:06;5.88;;;2.92;;
53646;SDS011;39550;52.230;5.194;2023-08-20T03:56:31;6.22;;;2.90;;
53646;SDS011;39550;52.230;5.194;2023-08-20T03:58:56;6.55;;;3.15;;
53646;SDS011;39550;52.230;5.194;2023-08-20T04:01:23;4.75;;;2.80;;
53646;SDS011;39550;52.230;5.194;2023-08-20T04:03:48;5.35;;;2.50;;
53646;SDS011;39550;52.230;5.194;2023-08-20T04:06:14;4.93;;;2.78;;
53646;SDS011;39550;52.230;5.194;2023-08-20T04:08:39;5.65;;;3.13;;
53646;SDS011;39550;52.230;5.194;2023-08-20T04:11:05;5.63;;;2.83;;
53646;SDS011;39550;52.230;5.194;2023-08-20T04:13:31;7.22;;;3.03;;
53646;SDS011;39550;52.230;5.194;2023-08-20T04:15:56;5.53;;;2.80;;
53646;SDS011;39550;52.230;5.194;2023-08-20T04:18:22;7.05;;;3.20;;
53646;SDS011;39550;52.230;5.194;2023-08-20T04:20:51;4.20;;;2.70;;
53646;SDS011;39550;52.230;5.194;2023-08-20T04:23:17;5.45;;;3.15;;
53646;SDS011;39550;52.230;5.194;2023-08-20T04:25:43;6.18;;;2.65;;
53646;SDS011;39550;52.230;5.194;2023-08-20T04:28:10;5.35;;;3.00;;
53646;SDS011;39550;52.230;5.194;2023-08-20T04:30:35;5.28;;;2.65;;
53646;SDS011;39550;52.230;5.194;2023-08-20T04:33:01;5.70;;;2.88;;
53646;SDS011;39550;52.230;5.194;2023-08-20T04:35:27;4.28;;;2.85;;
53646;SDS011;39550;52.230;5.194;2023-08-20T04:37:52;4.60;;;2.70;;
53646;SDS011;39550;52.230;5.194;2023-08-20T04:40:18;6.10;;;2.92;;
53646;SDS011;39550;52.230;5.194;2023-08-20T04:42:43;5.43;;;2.67;;
53646;SDS011;39550;52.230;5.194;2023-08-20T04:45:09;5.22;;;2.50;;
53646;SDS011;39550;52.230;5.194;2023-08-20T04:47:35;5.68;;;2.80;;
53646;SDS011;39550;52.230;5.194;2023-08-20T04:50:01;5.05;;;3.22;;
53646;SDS011;39550;52.230;5.194;2023-08-20T04:52:27;5.22;;;2.70;;
53646;SDS011;39550;52.230;5.194;2023-08-20T04:54:52;5.72;;;3.20;;
53646;SDS011;39550;52.230;5.194;2023-08-20T04:57:18;6.35;;;3.05;;
53646;SDS011;39550;52.230;5.194;2023-08-20T04:59:43;6.50;;;3.17;;
53646;SDS011;39550;52.230;5.194;2023-08-20T05:02:10;6.53;;;3.00;;
53646;SDS011;39550;52.230;5.194;2023-08-20T05:04:37;4.82;;;2.63;;
53646;SDS011;39550;52.230;5.194;2023-08-20T05:07:04;5.35;;;3.22;;
53646;SDS011;39550;52.230;5.194;2023-08-20T05:09:29;4.72;;;2.78;;
53646;SDS011;39550;52.230;5.194;2023-08-20T05:11:55;7.78;;;3.17;;
53646;SDS011;39550;52.230;5.194;2023-08-20T05:14:20;5.43;;;2.90;;
53646;SDS011;39550;52.230;5.194;2023-08-20T05:16:46;5.38;;;2.97;;
53646;SDS011;39550;52.230;5.194;2023-08-20T05:19:11;6.88;;;3.17;;
53646;SDS011;39550;52.230;5.194;2023-08-20T05:21:36;4.60;;;2.90;;
53646;SDS011;39550;52.230;5.194;2023-08-20T05:24:02;4.18;;;2.78;;
53646;SDS011;39550;52.230;5.194;2023-08-20T05:26:28;5.40;;;2.95;;
53646;SDS011;39550;52.230;5.194;2023-08-20T05:28:53;4.07;;;2.72;;
53646;SDS011;39550;52.230;5.194;2023-08-20T05:31:19;6.13;;;3.28;;
53646;SDS011;39550;52.230;5.194;2023-08-20T05:33:44;5.82;;;3.20;;
53646;SDS011;39550;52.230;5.194;2023-08-20T05:36:09;6.35;;;2.88;;
53646;SDS011;39550;52.230;5.194;2023-08-20T05:38:35;6.20;;;2.92;;
53646;SDS011;39550;52.230;5.194;2023-08-20T05:41:00;6.07;;;3.40;;
53646;SDS011;39550;52.230;5.194;2023-08-20T05:43:25;5.93;;;2.92;;
53646;SDS011;39550;52.230;5.194;2023-08-20T05:45:51;6.57;;;3.28;;
53646;SDS011;39550;52.230;5.194;2023-08-20T05:48:16;5.63;;;3.00;;
53646;SDS011;39550;52.230;5.194;2023-08-20T05:50:41;5.75;;;2.85;;
53646;SDS011;39550;52.230;5.194;2023-08-20T05:53:07;6.25;;;3.50;;
53646;SDS011;39550;52.230;5.194;2023-08-20T05:55:32;5.70;;;3.00;;
53646;SDS011;39550;52.230;5.194;2023-08-20T05:57:57;6.50;;;2.97;;
53646;SDS011;39550;52.230;5.194;2023-08-20T06:00:23;7.60;;;3.10;;
53646;SDS011;39550;52.230;5.194;2023-08-20T06:02:48;5.57;;;3.00;;
53646;SDS011;39550;52.230;5.194;2023-08-20T06:05:13;5.28;;;3.10;;
53646;SDS011;39550;52.230;5.194;2023-08-20T06:07:39;6.90;;;3.30;;
53646;SDS011;39550;52.230;5.194;2023-08-20T06:10:05;6.60;;;3.20;;
53646;SDS011;39550;52.230;5.194;2023-08-20T06:12:32;5.10;;;3.30;;
53646;SDS011;39550;52.230;5.194;2023-08-20T06:14:57;4.80;;;2.85;;
53646;SDS011;39550;52.230;5.194;2023-08-20T06:17:22;6.10;;;3.35;;
53646;SDS011;39550;52.230;5.194;2023-08-20T06:19:48;5.32;;;2.85;;
53646;SDS011;39550;52.230;5.194;2023-08-20T06:22:13;5.38;;;3.00;;
53646;SDS011;39550;52.230;5.194;2023-08-20T06:24:39;6.25;;;2.80;;
53646;SDS011;39550;52.230;5.194;2023-08-20T06:27:04;6.75;;;3.17;;
53646;SDS011;39550;52.230;5.194;2023-08-20T06:29:30;5.25;;;3.17;;
53646;SDS011;39550;52.230;5.194;2023-08-20T06:31:56;4.50;;;2.83;;
53646;SDS011;39550;52.230;5.194;2023-08-20T06:34:21;5.78;;;3.00;;
53646;SDS011;39550;52.230;5.194;2023-08-20T06:36:47;5.47;;;2.90;;
53646;SDS011;39550;52.230;5.194;2023-08-20T06:39:13;6.93;;;3.28;;
53646;SDS011;39550;52.230;5.194;2023-08-20T06:41:40;7.28;;;3.00;;
53646;SDS011;39550;52.230;5.194;2023-08-20T06:44:05;5.95;;;2.83;;
53646;SDS011;39550;52.230;5.194;2023-08-20T06:46:31;5.40;;;2.70;;
53646;SDS011;39550;52.230;5.194;2023-08-20T06:48:56;6.18;;;2.80;;
53646;SDS011;39550;52.230;5.194;2023-08-20T06:51:22;7.03;;;3.00;;
53646;SDS011;39550;52.230;5.194;2023-08-20T06:53:50;5.80;;;3.40;;
53646;SDS011;39550;52.230;5.194;2023-08-20T06:58:42;6.20;;;2.77;;
53646;SDS011;39550;52.230;5.194;2023-08-20T07:01:07;5.40;;;2.78;;
53646;SDS011;39550;52.230;5.194;2023-08-20T07:03:34;5.13;;;2.90;;
53646;SDS011;39550;52.230;5.194;2023-08-20T07:06:04;5.20;;;3.05;;
53646;SDS011;39550;52.230;5.194;2023-08-20T07:08:30;4.85;;;2.75;;
53646;SDS011;39550;52.230;5.194;2023-08-20T07:10:55;4.85;;;2.63;;
53646;SDS011;39550;52.230;5.194;2023-08-20T07:13:21;6.07;;;3.08;;
53646;SDS011;39550;52.230;5.194;2023-08-20T07:15:47;4.45;;;2.33;;
53646;SDS011;39550;52.230;5.194;2023-08-20T07:18:14;5.25;;;2.60;;
53646;SDS011;39550;52.230;5.194;2023-08-20T07:20:43;6.03;;;3.15;;
53646;SDS011;39550;52.230;5.194;2023-08-20T07:23:09;4.82;;;2.70;;
53646;SDS011;39550;52.230;5.194;2023-08-20T07:25:37;5.95;;;2.90;;
53646;SDS011;39550;52.230;5.194;2023-08-20T07:28:03;9.00;;;3.10;;
53646;SDS011;39550;52.230;5.194;2023-08-20T07:32:57;5.10;;;2.83;;
53646;SDS011;39550;52.230;5.194;2023-08-20T07:35:23;5.93;;;2.83;;
53646;SDS011;39550;52.230;5.194;2023-08-20T07:37:48;6.47;;;2.95;;
53646;SDS011;39550;52.230;5.194;2023-08-20T07:40:14;7.32;;;2.80;;
53646;SDS011;39550;52.230;5.194;2023-08-20T07:42:42;6.03;;;2.85;;
53646;SDS011;39550;52.230;5.194;2023-08-20T07:45:08;7.68;;;3.45;;
53646;SDS011;39550;52.230;5.194;2023-08-20T07:47:35;5.13;;;2.47;;
53646;SDS011;39550;52.230;5.194;2023-08-20T07:50:01;5.57;;;2.90;;
53646;SDS011;39550;52.230;5.194;2023-08-20T07:52:28;7.57;;;3.10;;
53646;SDS011;39550;52.230;5.194;2023-08-20T07:54:53;7.93;;;3.00;;
53646;SDS011;39550;52.230;5.194;2023-08-20T07:57:19;7.03;;;3.10;;
53646;SDS011;39550;52.230;5.194;2023-08-20T07:59:47;5.45;;;2.85;;
53646;SDS011;39550;52.230;5.194;2023-08-20T08:02:12;4.80;;;2.60;;
53646;SDS011;39550;52.230;5.194;2023-08-20T08:04:37;6.93;;;2.92;;
53646;SDS011;39550;52.230;5.194;2023-08-20T08:07:03;4.50;;;2.60;;
53646;SDS011;39550;52.230;5.194;2023-08-20T08:09:29;6.07;;;3.05;;
53646;SDS011;39550;52.230;5.194;2023-08-20T08:11:56;6.88;;;2.83;;
53646;SDS011;39550;52.230;5.194;2023-08-20T08:14:22;6.32;;;2.58;;
53646;SDS011;39550;52.230;5.194;2023-08-20T08:16:47;7.10;;;2.88;;
53646;SDS011;39550;52.230;5.194;2023-08-20T08:19:13;7.45;;;3.00;;
53646;SDS011;39550;52.230;5.194;2023-08-20T08:21:39;5.85;;;2.65;;
53646;SDS011;39550;52.230;5.194;2023-08-20T08:24:05;5.57;;;2.65;;
53646;SDS011;39550;52.230;5.194;2023-08-20T08:26:30;6.03;;;2.45;;
53646;SDS011;39550;52.230;5.194;2023-08-20T08:28:56;7.57;;;2.60;;
53646;SDS011;39550;52.230;5.194;2023-08-20T08:31:22;7.07;;;3.00;;
53646;SDS011;39550;52.230;5.194;2023-08-20T08:33:48;7.22;;;2.70;;
53646;SDS011;39550;52.230;5.194;2023-08-20T08:36:15;4.85;;;2.67;;
53646;SDS011;39550;52.230;5.194;2023-08-20T08:38:41;5.70;;;3.03;;
53646;SDS011;39550;52.230;5.194;2023-08-20T08:41:10;5.95;;;3.05;;
53646;SDS011;39550;52.230;5.194;2023-08-20T08:43:40;8.70;;;3.30;;
53646;SDS011;39550;52.230;5.194;2023-08-20T08:46:15;7.38;;;2.78;;
53646;SDS011;39550;52.230;5.194;2023-08-20T08:48:40;4.90;;;2.85;;
53646;SDS011;39550;52.230;5.194;2023-08-20T08:51:07;7.22;;;3.05;;
53646;SDS011;39550;52.230;5.194;2023-08-20T08:53:33;6.00;;;2.67;;
53646;SDS011;39550;52.230;5.194;2023-08-20T08:55:59;6.22;;;2.53;;
53646;SDS011;39550;52.230;5.194;2023-08-20T08:58:25;4.68;;;2.72;;
53646;SDS011;39550;52.230;5.194;2023-08-20T09:00:50;8.55;;;2.80;;
53646;SDS011;39550;52.230;5.194;2023-08-20T09:03:16;5.93;;;2.63;;
53646;SDS011;39550;52.230;5.194;2023-08-20T09:05:48;6.47;;;2.78;;
53646;SDS011;39550;52.230;5.194;2023-08-20T09:08:28;4.57;;;2.35;;
53646;SDS011;39550;52.230;5.194;2023-08-20T09:10:57;4.60;;;2.65;;
53646;SDS011;39550;52.230;5.194;2023-08-20T09:13:24;4.43;;;2.70;;
53646;SDS011;39550;52.230;5.194;2023-08-20T09:16:02;6.35;;;2.90;;
53646;SDS011;39550;52.230;5.194;2023-08-20T09:18:29;7.77;;;2.60;;
53646;SDS011;39550;52.230;5.194;2023-08-20T09:20:56;5.63;;;2.80;;
53646;SDS011;39550;52.230;5.194;2023-08-20T09:23:23;9.43;;;2.75;;
53646;SDS011;39550;52.230;5.194;2023-08-20T09:25:48;7.35;;;2.85;;
53646;SDS011;39550;52.230;5.194;2023-08-20T09:28:14;5.70;;;2.60;;
53646;SDS011;39550;52.230;5.194;2023-08-20T09:30:39;4.95;;;2.50;;
53646;SDS011;39550;52.230;5.194;2023-08-20T09:33:12;5.35;;;2.83;;
53646;SDS011;39550;52.230;5.194;2023-08-20T09:35:48;5.57;;;2.90;;
53646;SDS011;39550;52.230;5.194;2023-08-20T09:38:14;6.03;;;2.63;;
53646;SDS011;39550;52.230;5.194;2023-08-20T09:40:39;7.13;;;3.10;;
53646;SDS011;39550;52.230;5.194;2023-08-20T09:43:05;6.22;;;3.13;;
53646;SDS011;39550;52.230;5.194;2023-08-20T09:45:33;5.60;;;2.65;;
53646;SDS011;39550;52.230;5.194;2023-08-20T09:48:01;6.55;;;3.10;;
53646;SDS011;39550;52.230;5.194;2023-08-20T09:50:30;4.35;;;2.50;;
53646;SDS011;39550;52.230;5.194;2023-08-20T09:56:00;5.88;;;2.70;;
53646;SDS011;39550;52.230;5.194;2023-08-20T09:58:40;6.30;;;2.55;;
53646;SDS011;39550;52.230;5.194;2023-08-20T10:01:07;5.70;;;2.55;;
53646;SDS011;39550;52.230;5.194;2023-08-20T10:03:32;5.97;;;2.63;;
53646;SDS011;39550;52.230;5.194;2023-08-20T10:05:58;6.55;;;2.78;;
53646;SDS011;39550;52.230;5.194;2023-08-20T10:08:26;4.70;;;2.40;;
53646;SDS011;39550;52.230;5.194;2023-08-20T10:10:52;5.72;;;2.65;;
53646;SDS011;39550;52.230;5.194;2023-08-20T10:13:18;9.00;;;2.58;;
53646;SDS011;39550;52.230;5.194;2023-08-20T10:15:43;5.43;;;2.45;;
53646;SDS011;39550;52.230;5.194;2023-08-20T10:18:10;9.48;;;2.63;;
53646;SDS011;39550;52.230;5.194;2023-08-20T10:20:36;4.63;;;2.53;;
53646;SDS011;39550;52.230;5.194;2023-08-20T10:23:03;5.53;;;2.40;;
53646;SDS011;39550;52.230;5.194;2023-08-20T10:25:29;5.22;;;2.42;;
53646;SDS011;39550;52.230;5.194;2023-08-20T10:28:11;6.63;;;2.42;;
53646;SDS011;39550;52.230;5.194;2023-08-20T10:30:38;5.72;;;2.67;;
53646;SDS011;39550;52.230;5.194;2023-08-20T10:33:04;4.50;;;2.53;;
53646;SDS011;39550;52.230;5.194;2023-08-20T10:38:14;4.95;;;2.28;;
53646;SDS011;39550;52.230;5.194;2023-08-20T10:40:53;5.10;;;2.35;;
53646;SDS011;39550;52.230;5.194;2023-08-20T10:43:26;6.78;;;2.30;;
53646;SDS011;39550;52.230;5.194;2023-08-20T10:48:37;5.07;;;2.30;;
53646;SDS011;39550;52.230;5.194;2023-08-20T10:51:08;8.05;;;2.47;;
53646;SDS011;39550;52.230;5.194;2023-08-20T10:53:35;6.25;;;2.78;;
53646;SDS011;39550;52.230;5.194;2023-08-20T10:56:07;6.07;;;2.33;;
53646;SDS011;39550;52.230;5.194;2023-08-20T10:58:43;4.00;;;2.28;;
53646;SDS011;39550;52.230;5.194;2023-08-20T11:01:14;6.03;;;2.50;;
53646;SDS011;39550;52.230;5.194;2023-08-20T11:03:49;4.50;;;2.00;;
53646;SDS011;39550;52.230;5.194;2023-08-20T11:06:15;4.95;;;2.10;;
53646;SDS011;39550;52.230;5.194;2023-08-20T11:08:42;5.88;;;2.85;;
53646;SDS011;39550;52.230;5.194;2023-08-20T11:11:08;5.05;;;2.72;;
53646;SDS011;39550;52.230;5.194;2023-08-20T11:13:34;4.70;;;2.17;;
53646;SDS011;39550;52.230;5.194;2023-08-20T11:16:06;4.53;;;2.35;;
53646;SDS011;39550;52.230;5.194;2023-08-20T11:18:32;4.35;;;2.17;;
53646;SDS011;39550;52.230;5.194;2023-08-20T11:20:59;5.78;;;2.60;;
53646;SDS011;39550;52.230;5.194;2023-08-20T11:23:25;6.53;;;2.30;;
53646;SDS011;39550;52.230;5.194;2023-08-20T11:25:50;4.45;;;2.08;;
53646;SDS011;39550;52.230;5.194;2023-08-20T11:28:16;6.32;;;2.22;;
53646;SDS011;39550;52.230;5.194;2023-08-20T11:30:42;4.70;;;2.10;;
53646;SDS011;39550;52.230;5.194;2023-08-20T11:33:08;6.13;;;2.95;;
53646;SDS011;39550;52.230;5.194;2023-08-20T11:35:34;5.35;;;2.40;;
53646;SDS011;39550;52.230;5.194;2023-08-20T11:38:00;4.38;;;2.00;;
53646;SDS011;39550;52.230;5.194;2023-08-20T11:40:25;5.50;;;2.75;;
53646;SDS011;39550;52.230;5.194;2023-08-20T11:42:51;5.93;;;2.92;;
53646;SDS011;39550;52.230;5.194;2023-08-20T11:45:17;5.35;;;2.38;;
53646;SDS011;39550;52.230;5.194;2023-08-20T11:47:43;6.00;;;2.40;;
53646;SDS011;39550;52.230;5.194;2023-08-20T11:50:09;3.85;;;2.10;;
53646;SDS011;39550;52.230;5.194;2023-08-20T11:52:35;5.57;;;2.17;;
53646;SDS011;39550;52.230;5.194;2023-08-20T11:55:01;6.13;;;2.22;;
53646;SDS011;39550;52.230;5.194;2023-08-20T11:57:28;5.35;;;2.38;;
53646;SDS011;39550;52.230;5.194;2023-08-20T11:59:54;4.63;;;2.10;;
53646;SDS011;39550;52.230;5.194;2023-08-20T12:02:26;4.78;;;2.00;;
53646;SDS011;39550;52.230;5.194;2023-08-20T12:04:55;6.47;;;2.40;;
53646;SDS011;39550;52.230;5.194;2023-08-20T12:07:24;4.32;;;2.40;;
53646;SDS011;39550;52.230;5.194;2023-08-20T12:09:50;4.55;;;2.05;;
53646;SDS011;39550;52.230;5.194;2023-08-20T12:12:16;4.38;;;2.45;;
53646;SDS011;39550;52.230;5.194;2023-08-20T12:14:44;4.65;;;2.45;;
53646;SDS011;39550;52.230;5.194;2023-08-20T12:17:10;5.00;;;2.35;;
53646;SDS011;39550;52.230;5.194;2023-08-20T12:19:35;7.30;;;2.65;;
53646;SDS011;39550;52.230;5.194;2023-08-20T12:22:00;5.00;;;2.13;;
53646;SDS011;39550;52.230;5.194;2023-08-20T12:24:26;4.22;;;2.40;;
53646;SDS011;39550;52.230;5.194;2023-08-20T12:26:51;6.50;;;2.55;;
53646;SDS011;39550;52.230;5.194;2023-08-20T12:29:18;5.88;;;2.67;;
53646;SDS011;39550;52.230;5.194;2023-08-20T12:31:43;6.03;;;2.30;;
53646;SDS011;39550;52.230;5.194;2023-08-20T12:34:08;5.38;;;2.30;;
53646;SDS011;39550;52.230;5.194;2023-08-20T12:36:36;3.90;;;2.20;;
53646;SDS011;39550;52.230;5.194;2023-08-20T12:39:03;6.13;;;2.40;;
53646;SDS011;39550;52.230;5.194;2023-08-20T12:41:29;4.18;;;2.10;;
53646;SDS011;39550;52.230;5.194;2023-08-20T12:43:55;4.38;;;2.60;;
53646;SDS011;39550;52.230;5.194;2023-08-20T12:46:20;6.18;;;2.90;;
53646;SDS011;39550;52.230;5.194;2023-08-20T12:48:46;5.03;;;2.35;;
53646;SDS011;39550;52.230;5.194;2023-08-20T12:51:11;4.40;;;2.08;;
53646;SDS011;39550;52.230;5.194;2023-08-20T12:53:38;4.75;;;2.40;;
53646;SDS011;39550;52.230;5.194;2023-08-20T12:56:04;4.78;;;2.20;;
53646;SDS011;39550;52.230;5.194;2023-08-20T12:58:30;4.97;;;2.60;;
53646;SDS011;39550;52.230;5.194;2023-08-20T13:00:55;6.00;;;2.78;;
53646;SDS011;39550;52.230;5.194;2023-08-20T13:03:21;6.05;;;2.13;;
53646;SDS011;39550;52.230;5.194;2023-08-20T13:05:46;6.70;;;2.28;;
53646;SDS011;39550;52.230;5.194;2023-08-20T13:08:12;5.88;;;2.35;;
53646;SDS011;39550;52.230;5.194;2023-08-20T13:10:41;4.78;;;2.10;;
53646;SDS011;39550;52.230;5.194;2023-08-20T13:13:10;5.18;;;2.10;;
53646;SDS011;39550;52.230;5.194;2023-08-20T13:15:38;4.35;;;2.33;;
53646;SDS011;39550;52.230;5.194;2023-08-20T13:18:04;6.78;;;2.45;;
53646;SDS011;39550;52.230;5.194;2023-08-20T13:20:30;4.00;;;2.10;;
53646;SDS011;39550;52.230;5.194;2023-08-20T13:22:56;5.07;;;2.10;;
53646;SDS011;39550;52.230;5.194;2023-08-20T13:25:21;3.75;;;2.08;;
53646;SDS011;39550;52.230;5.194;2023-08-20T13:27:47;5.68;;;2.22;;
53646;SDS011;39550;52.230;5.194;2023-08-20T13:30:13;5.30;;;2.00;;
53646;SDS011;39550;52.230;5.194;2023-08-20T13:32:39;6.00;;;2.38;;
53646;SDS011;39550;52.230;5.194;2023-08-20T13:35:04;4.55;;;2.20;;
53646;SDS011;39550;52.230;5.194;2023-08-20T13:37:31;3.92;;;1.90;;
53646;SDS011;39550;52.230;5.194;2023-08-20T13:39:57;4.25;;;2.40;;
53646;SDS011;39550;52.230;5.194;2023-08-20T13:42:23;4.90;;;2.30;;
53646;SDS011;39550;52.230;5.194;2023-08-20T13:44:49;5.32;;;2.10;;
53646;SDS011;39550;52.230;5.194;2023-08-20T13:47:14;4.78;;;2.15;;
53646;SDS011;39550;52.230;5.194;2023-08-20T13:49:39;3.65;;;2.10;;
53646;SDS011;39550;52.230;5.194;2023-08-20T13:52:05;4.10;;;2.00;;
53646;SDS011;39550;52.230;5.194;2023-08-20T13:54:32;3.83;;;2.03;;
53646;SDS011;39550;52.230;5.194;2023-08-20T13:56:58;4.53;;;1.90;;
53646;SDS011;39550;52.230;5.194;2023-08-20T13:59:23;4.82;;;2.20;;
53646;SDS011;39550;52.230;5.194;2023-08-20T14:01:49;4.03;;;2.10;;
53646;SDS011;39550;52.230;5.194;2023-08-20T14:04:14;3.20;;;1.70;;
53646;SDS011;39550;52.230;5.194;2023-08-20T14:06:40;4.68;;;2.30;;
53646;SDS011;39550;52.230;5.194;2023-08-20T14:09:06;3.90;;;1.90;;
53646;SDS011;39550;52.230;5.194;2023-08-20T14:11:31;4.68;;;2.03;;
53646;SDS011;39550;52.230;5.194;2023-08-20T14:13:57;4.63;;;2.03;;
53646;SDS011;39550;52.230;5.194;2023-08-20T14:16:23;4.93;;;2.20;;
53646;SDS011;39550;52.230;5.194;2023-08-20T14:18:48;4.55;;;2.45;;
53646;SDS011;39550;52.230;5.194;2023-08-20T14:21:14;4.45;;;2.20;;
53646;SDS011;39550;52.230;5.194;2023-08-20T14:23:40;6.97;;;2.28;;
53646;SDS011;39550;52.230;5.194;2023-08-20T14:26:05;4.68;;;2.00;;
53646;SDS011;39550;52.230;5.194;2023-08-20T14:28:32;3.00;;;1.80;;
53646;SDS011;39550;52.230;5.194;2023-08-20T14:31:01;6.88;;;2.15;;
53646;SDS011;39550;52.230;5.194;2023-08-20T14:33:28;5.53;;;1.90;;
53646;SDS011;39550;52.230;5.194;2023-08-20T14:38:22;3.35;;;1.83;;
53646;SDS011;39550;52.230;5.194;2023-08-20T14:40:48;2.90;;;1.70;;
53646;SDS011;39550;52.230;5.194;2023-08-20T14:43:13;4.25;;;2.10;;
53646;SDS011;39550;52.230;5.194;2023-08-20T14:45:39;4.05;;;2.10;;
53646;SDS011;39550;52.230;5.194;2023-08-20T14:48:04;4.90;;;2.22;;
53646;SDS011;39550;52.230;5.194;2023-08-20T14:50:30;5.38;;;1.90;;
53646;SDS011;39550;52.230;5.194;2023-08-20T14:52:56;4.40;;;2.10;;
53646;SDS011;39550;52.230;5.194;2023-08-20T14:55:22;4.53;;;2.00;;
53646;SDS011;39550;52.230;5.194;2023-08-20T14:57:47;4.63;;;1.85;;
53646;SDS011;39550;52.230;5.194;2023-08-20T15:00:13;5.47;;;2.22;;
53646;SDS011;39550;52.230;5.194;2023-08-20T15:02:40;3.40;;;1.95;;
53646;SDS011;39550;52.230;5.194;2023-08-20T15:05:15;5.78;;;1.90;;
53646;SDS011;39550;52.230;5.194;2023-08-20T15:07:57;3.50;;;1.90;;
53646;SDS011;39550;52.230;5.194;2023-08-20T15:10:38;3.47;;;1.95;;